sensor_id;sensor_type;location;lat;lon;timestamp;temperature;humidity
47590;DHT22;33316;52.298;9.056;2023-06-19T00:01:57;24.70;50.00
47590;DHT22;33316;52.298;9.056;2023-06-19T00:04:24;24.70;50.00
47590;DHT22;33316;52.298;9.056;2023-06-19T00:06:51;24.70;50.10
47590;DHT22;33316;52.298;9.056;2023-06-19T00:09:18;24.70;50.10
47590;DHT22;33316;52.298;9.056;2023-06-19T00:11:47;24.70;50.30
47590;DHT22;33316;52.298;9.056;2023-06-19T00:14:14;24.70;50.40
47590;DHT22;33316;52.298;9.056;2023-06-19T00:16:41;24.70;50.50
47590;DHT22;33316;52.298;9.056;2023-06-19T00:19:09;24.60;50.50
47590;DHT22;33316;52.298;9.056;2023-06-19T00:21:37;24.70;50.70
47590;DHT22;33316;52.298;9.056;2023-06-19T00:24:04;24.60;50.80
47590;DHT22;33316;52.298;9.056;2023-06-19T00:26:31;24.60;50.90
47590;DHT22;33316;52.298;9.056;2023-06-19T00:28:59;24.60;51.00
47590;DHT22;33316;52.298;9.056;2023-06-19T00:31:26;24.60;51.10
47590;DHT22;33316;52.298;9.056;2023-06-19T00:33:54;24.60;51.10
47590;DHT22;33316;52.298;9.056;2023-06-19T00:36:20;24.50;51.10
47590;DHT22;33316;52.298;9.056;2023-06-19T00:38:49;24.50;51.10
47590;DHT22;33316;52.298;9.056;2023-06-19T00:41:16;24.60;51.30
47590;DHT22;33316;52.298;9.056;2023-06-19T00:43:42;24.60;51.40
47590;DHT22;33316;52.298;9.056;2023-06-19T00:46:11;24.60;51.50
47590;DHT22;33316;52.298;9.056;2023-06-19T00:48:38;24.50;51.40
47590;DHT22;33316;52.298;9.056;2023-06-19T00:51:05;24.50;51.40
47590;DHT22;33316;52.298;9.056;2023-06-19T00:53:33;24.50;51.60
47590;DHT22;33316;52.298;9.056;2023-06-19T00:56:00;24.50;51.30
47590;DHT22;33316;52.298;9.056;2023-06-19T00:58:27;24.50;51.40
47590;DHT22;33316;52.298;9.056;2023-06-19T01:00:54;24.50;51.60
47590;DHT22;33316;52.298;9.056;2023-06-19T01:03:24;24.50;51.70
47590;DHT22;33316;52.298;9.056;2023-06-19T01:05:53;24.50;51.90
47590;DHT22;33316;52.298;9.056;2023-06-19T01:08:41;24.50;51.90
47590;DHT22;33316;52.298;9.056;2023-06-19T01:11:09;24.50;51.90
47590;DHT22;33316;52.298;9.056;2023-06-19T01:13:42;24.50;51.90
47590;DHT22;33316;52.298;9.056;2023-06-19T01:16:11;24.40;52.40
47590;DHT22;33316;52.298;9.056;2023-06-19T01:18:39;24.40;51.60
47590;DHT22;33316;52.298;9.056;2023-06-19T01:21:10;24.40;51.60
47590;DHT22;33316;52.298;9.056;2023-06-19T01:23:39;24.40;51.60
47590;DHT22;33316;52.298;9.056;2023-06-19T01:26:06;24.30;51.50
47590;DHT22;33316;52.298;9.056;2023-06-19T01:28:34;24.30;51.60
47590;DHT22;33316;52.298;9.056;2023-06-19T01:31:04;24.30;51.60
47590;DHT22;33316;52.298;9.056;2023-06-19T01:33:33;24.30;51.60
47590;DHT22;33316;52.298;9.056;2023-06-19T01:36:03;24.20;51.60
47590;DHT22;33316;52.298;9.056;2023-06-19T01:38:31;24.20;51.70
47590;DHT22;33316;52.298;9.056;2023-06-19T01:41:00;24.20;51.70
47590;DHT22;33316;52.298;9.056;2023-06-19T01:43:28;24.20;51.80
47590;DHT22;33316;52.298;9.056;2023-06-19T01:45:56;24.20;51.90
47590;DHT22;33316;52.298;9.056;2023-06-19T01:48:23;24.20;52.20
47590;DHT22;33316;52.298;9.056;2023-06-19T01:50:50;24.20;52.40
47590;DHT22;33316;52.298;9.056;2023-06-19T01:53:17;24.10;52.90
47590;DHT22;33316;52.298;9.056;2023-06-19T01:55:44;24.00;53.20
47590;DHT22;33316;52.298;9.056;2023-06-19T01:58:12;24.00;53.40
47590;DHT22;33316;52.298;9.056;2023-06-19T02:00:39;24.00;53.70
47590;DHT22;33316;52.298;9.056;2023-06-19T02:03:05;23.90;53.80
47590;DHT22;33316;52.298;9.056;2023-06-19T02:05:32;23.90;53.90
47590;DHT22;33316;52.298;9.056;2023-06-19T02:07:59;23.90;54.20
47590;DHT22;33316;52.298;9.056;2023-06-19T02:10:26;23.90;54.50
47590;DHT22;33316;52.298;9.056;2023-06-19T02:12:52;23.80;54.80
47590;DHT22;33316;52.298;9.056;2023-06-19T02:15:20;23.80;54.90
47590;DHT22;33316;52.298;9.056;2023-06-19T02:17:47;23.80;54.80
47590;DHT22;33316;52.298;9.056;2023-06-19T02:20:14;23.80;54.90
47590;DHT22;33316;52.298;9.056;2023-06-19T02:22:41;23.70;54.90
47590;DHT22;33316;52.298;9.056;2023-06-19T02:25:08;23.70;54.80
47590;DHT22;33316;52.298;9.056;2023-06-19T02:27:35;23.70;54.30
47590;DHT22;33316;52.298;9.056;2023-06-19T02:30:01;23.70;54.30
47590;DHT22;33316;52.298;9.056;2023-06-19T02:32:29;23.70;54.70
47590;DHT22;33316;52.298;9.056;2023-06-19T02:34:57;23.70;55.00
47590;DHT22;33316;52.298;9.056;2023-06-19T02:37:23;23.70;55.30
47590;DHT22;33316;52.298;9.056;2023-06-19T02:39:50;23.70;55.70
47590;DHT22;33316;52.298;9.056;2023-06-19T02:42:17;23.70;55.80
47590;DHT22;33316;52.298;9.056;2023-06-19T02:44:43;23.60;56.10
47590;DHT22;33316;52.298;9.056;2023-06-19T02:47:11;23.60;56.40
47590;DHT22;33316;52.298;9.056;2023-06-19T02:49:39;23.60;56.70
47590;DHT22;33316;52.298;9.056;2023-06-19T02:52:07;23.50;56.90
47590;DHT22;33316;52.298;9.056;2023-06-19T02:54:33;23.50;57.00
47590;DHT22;33316;52.298;9.056;2023-06-19T02:57:00;23.50;57.10
47590;DHT22;33316;52.298;9.056;2023-06-19T02:59:27;23.40;57.00
47590;DHT22;33316;52.298;9.056;2023-06-19T03:01:53;23.40;57.50
47590;DHT22;33316;52.298;9.056;2023-06-19T03:04:20;23.40;56.60
47590;DHT22;33316;52.298;9.056;2023-06-19T03:06:49;23.40;56.40
47590;DHT22;33316;52.298;9.056;2023-06-19T03:09:16;23.40;56.10
47590;DHT22;33316;52.298;9.056;2023-06-19T03:11:42;23.40;55.80
47590;DHT22;33316;52.298;9.056;2023-06-19T03:14:09;23.40;55.60
47590;DHT22;33316;52.298;9.056;2023-06-19T03:16:36;23.40;55.20
47590;DHT22;33316;52.298;9.056;2023-06-19T03:19:02;23.40;55.10
47590;DHT22;33316;52.298;9.056;2023-06-19T03:21:29;23.40;55.00
47590;DHT22;33316;52.298;9.056;2023-06-19T03:23:57;23.40;54.90
47590;DHT22;33316;52.298;9.056;2023-06-19T03:26:24;23.40;54.80
47590;DHT22;33316;52.298;9.056;2023-06-19T03:28:51;23.40;54.70
47590;DHT22;33316;52.298;9.056;2023-06-19T03:31:18;23.40;54.50
47590;DHT22;33316;52.298;9.056;2023-06-19T03:33:45;23.40;54.40
47590;DHT22;33316;52.298;9.056;2023-06-19T03:36:11;23.40;54.40
47590;DHT22;33316;52.298;9.056;2023-06-19T03:38:38;23.40;54.50
47590;DHT22;33316;52.298;9.056;2023-06-19T03:41:06;23.50;54.40
47590;DHT22;33316;52.298;9.056;2023-06-19T03:43:33;23.40;54.20
47590;DHT22;33316;52.298;9.056;2023-06-19T03:46:00;23.40;54.20
47590;DHT22;33316;52.298;9.056;2023-06-19T03:48:27;23.50;54.30
47590;DHT22;33316;52.298;9.056;2023-06-19T03:50:53;23.50;54.30
47590;DHT22;33316;52.298;9.056;2023-06-19T03:53:20;23.50;54.20
47590;DHT22;33316;52.298;9.056;2023-06-19T03:55:47;23.40;54.10
47590;DHT22;33316;52.298;9.056;2023-06-19T03:58:15;23.40;54.20
47590;DHT22;33316;52.298;9.056;2023-06-19T04:00:42;23.50;54.50
47590;DHT22;33316;52.298;9.056;2023-06-19T04:03:09;23.50;54.60
47590;DHT22;33316;52.298;9.056;2023-06-19T04:05:35;23.50;55.20
47590;DHT22;33316;52.298;9.056;2023-06-19T04:08:02;23.50;56.10
47590;DHT22;33316;52.298;9.056;2023-06-19T04:10:29;23.50;56.10
47590;DHT22;33316;52.298;9.056;2023-06-19T04:12:57;23.50;56.30
47590;DHT22;33316;52.298;9.056;2023-06-19T04:15:25;23.50;56.20
47590;DHT22;33316;52.298;9.056;2023-06-19T04:17:51;23.50;56.50
47590;DHT22;33316;52.298;9.056;2023-06-19T04:20:18;23.50;56.30
47590;DHT22;33316;52.298;9.056;2023-06-19T04:22:45;23.50;56.10
47590;DHT22;33316;52.298;9.056;2023-06-19T04:25:12;23.50;56.10
47590;DHT22;33316;52.298;9.056;2023-06-19T04:27:39;23.40;56.20
47590;DHT22;33316;52.298;9.056;2023-06-19T04:30:06;23.40;56.40
47590;DHT22;33316;52.298;9.056;2023-06-19T04:32:35;23.40;56.40
47590;DHT22;33316;52.298;9.056;2023-06-19T04:35:02;23.40;56.50
47590;DHT22;33316;52.298;9.056;2023-06-19T04:37:30;23.40;56.60
47590;DHT22;33316;52.298;9.056;2023-06-19T04:39:56;23.30;56.50
47590;DHT22;33316;52.298;9.056;2023-06-19T04:42:24;23.30;56.40
47590;DHT22;33316;52.298;9.056;2023-06-19T04:44:52;23.30;56.30
47590;DHT22;33316;52.298;9.056;2023-06-19T04:47:21;23.30;56.30
47590;DHT22;33316;52.298;9.056;2023-06-19T04:49:49;23.30;56.30
47590;DHT22;33316;52.298;9.056;2023-06-19T04:52:16;23.30;56.10
47590;DHT22;33316;52.298;9.056;2023-06-19T04:54:44;23.30;56.10
47590;DHT22;33316;52.298;9.056;2023-06-19T04:57:10;23.30;56.00
47590;DHT22;33316;52.298;9.056;2023-06-19T04:59:37;23.30;56.00
47590;DHT22;33316;52.298;9.056;2023-06-19T05:02:04;23.30;56.00
47590;DHT22;33316;52.298;9.056;2023-06-19T05:04:32;23.30;56.10
47590;DHT22;33316;52.298;9.056;2023-06-19T05:07:00;23.40;56.10
47590;DHT22;33316;52.298;9.056;2023-06-19T05:09:28;23.40;56.00
47590;DHT22;33316;52.298;9.056;2023-06-19T05:11:56;23.50;56.00
47590;DHT22;33316;52.298;9.056;2023-06-19T05:14:23;23.50;56.00
47590;DHT22;33316;52.298;9.056;2023-06-19T05:16:50;23.60;55.90
47590;DHT22;33316;52.298;9.056;2023-06-19T05:19:16;23.60;55.90
47590;DHT22;33316;52.298;9.056;2023-06-19T05:21:43;23.60;55.80
47590;DHT22;33316;52.298;9.056;2023-06-19T05:24:11;23.70;55.80
47590;DHT22;33316;52.298;9.056;2023-06-19T05:26:37;23.70;55.70
47590;DHT22;33316;52.298;9.056;2023-06-19T05:29:04;23.70;55.70
47590;DHT22;33316;52.298;9.056;2023-06-19T05:31:34;23.70;55.70
47590;DHT22;33316;52.298;9.056;2023-06-19T05:34:00;23.70;55.60
47590;DHT22;33316;52.298;9.056;2023-06-19T05:36:27;23.70;55.60
47590;DHT22;33316;52.298;9.056;2023-06-19T05:38:54;23.70;55.60
47590;DHT22;33316;52.298;9.056;2023-06-19T05:41:22;23.80;55.70
47590;DHT22;33316;52.298;9.056;2023-06-19T05:43:48;23.70;55.70
47590;DHT22;33316;52.298;9.056;2023-06-19T05:46:15;23.70;55.70
47590;DHT22;33316;52.298;9.056;2023-06-19T05:48:42;23.80;55.80
47590;DHT22;33316;52.298;9.056;2023-06-19T05:51:08;23.80;55.70
47590;DHT22;33316;52.298;9.056;2023-06-19T05:53:35;23.80;55.60
47590;DHT22;33316;52.298;9.056;2023-06-19T05:56:01;23.80;55.70
47590;DHT22;33316;52.298;9.056;2023-06-19T05:58:29;23.90;55.70
47590;DHT22;33316;52.298;9.056;2023-06-19T06:00:56;23.90;55.60
47590;DHT22;33316;52.298;9.056;2023-06-19T06:03:24;24.00;56.00
47590;DHT22;33316;52.298;9.056;2023-06-19T06:05:51;24.00;56.10
47590;DHT22;33316;52.298;9.056;2023-06-19T06:08:18;24.10;56.00
47590;DHT22;33316;52.298;9.056;2023-06-19T06:10:44;24.10;56.10
47590;DHT22;33316;52.298;9.056;2023-06-19T06:13:12;24.20;56.20
47590;DHT22;33316;52.298;9.056;2023-06-19T06:15:40;24.30;56.20
47590;DHT22;33316;52.298;9.056;2023-06-19T06:18:07;24.40;56.30
47590;DHT22;33316;52.298;9.056;2023-06-19T06:20:33;24.50;56.00
47590;DHT22;33316;52.298;9.056;2023-06-19T06:23:00;24.70;55.90
47590;DHT22;33316;52.298;9.056;2023-06-19T06:25:27;24.90;55.70
47590;DHT22;33316;52.298;9.056;2023-06-19T06:27:53;25.10;55.60
47590;DHT22;33316;52.298;9.056;2023-06-19T06:30:21;25.20;55.50
47590;DHT22;33316;52.298;9.056;2023-06-19T06:32:49;25.30;55.70
47590;DHT22;33316;52.298;9.056;2023-06-19T06:35:16;25.50;55.70
47590;DHT22;33316;52.298;9.056;2023-06-19T06:37:43;25.60;55.40
47590;DHT22;33316;52.298;9.056;2023-06-19T06:40:12;25.80;55.20
47590;DHT22;33316;52.298;9.056;2023-06-19T06:42:38;26.00;55.10
47590;DHT22;33316;52.298;9.056;2023-06-19T06:45:06;26.10;54.80
47590;DHT22;33316;52.298;9.056;2023-06-19T06:47:35;26.20;54.90
47590;DHT22;33316;52.298;9.056;2023-06-19T06:50:03;26.30;54.90
47590;DHT22;33316;52.298;9.056;2023-06-19T06:52:30;26.40;54.80
47590;DHT22;33316;52.298;9.056;2023-06-19T06:54:57;26.40;54.60
47590;DHT22;33316;52.298;9.056;2023-06-19T06:57:24;26.40;54.70
47590;DHT22;33316;52.298;9.056;2023-06-19T06:59:51;26.40;54.90
47590;DHT22;33316;52.298;9.056;2023-06-19T07:02:17;26.30;55.20
47590;DHT22;33316;52.298;9.056;2023-06-19T07:04:44;26.30;55.40
47590;DHT22;33316;52.298;9.056;2023-06-19T07:07:12;26.40;55.70
47590;DHT22;33316;52.298;9.056;2023-06-19T07:09:39;26.40;55.70
47590;DHT22;33316;52.298;9.056;2023-06-19T07:12:06;26.50;55.70
47590;DHT22;33316;52.298;9.056;2023-06-19T07:14:33;26.50;55.70
47590;DHT22;33316;52.298;9.056;2023-06-19T07:17:00;26.60;55.60
47590;DHT22;33316;52.298;9.056;2023-06-19T07:19:28;26.70;55.60
47590;DHT22;33316;52.298;9.056;2023-06-19T07:21:55;26.80;55.70
47590;DHT22;33316;52.298;9.056;2023-06-19T07:24:23;26.90;56.00
47590;DHT22;33316;52.298;9.056;2023-06-19T07:26:50;27.10;55.50
47590;DHT22;33316;52.298;9.056;2023-06-19T07:29:17;27.10;55.40
47590;DHT22;33316;52.298;9.056;2023-06-19T07:31:43;27.20;55.50
47590;DHT22;33316;52.298;9.056;2023-06-19T07:34:10;27.30;55.50
47590;DHT22;33316;52.298;9.056;2023-06-19T07:36:37;27.40;55.60
47590;DHT22;33316;52.298;9.056;2023-06-19T07:39:03;27.50;56.10
47590;DHT22;33316;52.298;9.056;2023-06-19T07:41:31;27.60;55.50
47590;DHT22;33316;52.298;9.056;2023-06-19T07:43:58;27.60;56.10
47590;DHT22;33316;52.298;9.056;2023-06-19T07:46:25;27.70;55.40
47590;DHT22;33316;52.298;9.056;2023-06-19T07:48:52;27.70;55.30
47590;DHT22;33316;52.298;9.056;2023-06-19T07:51:18;27.80;55.10
47590;DHT22;33316;52.298;9.056;2023-06-19T07:53:45;27.80;54.90
47590;DHT22;33316;52.298;9.056;2023-06-19T07:56:11;27.90;54.90
47590;DHT22;33316;52.298;9.056;2023-06-19T07:58:39;27.90;55.00
47590;DHT22;33316;52.298;9.056;2023-06-19T08:01:06;27.90;54.80
47590;DHT22;33316;52.298;9.056;2023-06-19T08:03:33;27.90;54.80
47590;DHT22;33316;52.298;9.056;2023-06-19T08:06:00;28.00;54.70
47590;DHT22;33316;52.298;9.056;2023-06-19T08:08:26;28.00;54.80
47590;DHT22;33316;52.298;9.056;2023-06-19T08:10:53;28.00;54.60
47590;DHT22;33316;52.298;9.056;2023-06-19T08:13:22;28.10;54.70
47590;DHT22;33316;52.298;9.056;2023-06-19T08:15:50;28.20;54.50
47590;DHT22;33316;52.298;9.056;2023-06-19T08:18:17;28.20;54.60
47590;DHT22;33316;52.298;9.056;2023-06-19T08:20:44;28.20;54.50
47590;DHT22;33316;52.298;9.056;2023-06-19T08:23:10;28.20;54.40
47590;DHT22;33316;52.298;9.056;2023-06-19T08:25:37;28.30;54.40
47590;DHT22;33316;52.298;9.056;2023-06-19T08:28:04;28.30;54.30
47590;DHT22;33316;52.298;9.056;2023-06-19T08:30:31;28.30;54.00
47590;DHT22;33316;52.298;9.056;2023-06-19T08:32:59;28.20;54.00
47590;DHT22;33316;52.298;9.056;2023-06-19T08:35:25;28.10;54.00
47590;DHT22;33316;52.298;9.056;2023-06-19T08:37:52;28.10;54.10
47590;DHT22;33316;52.298;9.056;2023-06-19T08:40:20;28.00;54.00
47590;DHT22;33316;52.298;9.056;2023-06-19T08:42:47;28.00;54.20
47590;DHT22;33316;52.298;9.056;2023-06-19T08:45:14;28.00;54.40
47590;DHT22;33316;52.298;9.056;2023-06-19T08:47:44;28.00;54.30
47590;DHT22;33316;52.298;9.056;2023-06-19T08:50:12;28.00;54.30
47590;DHT22;33316;52.298;9.056;2023-06-19T08:52:39;28.00;54.50
47590;DHT22;33316;52.298;9.056;2023-06-19T08:55:09;28.00;54.50
47590;DHT22;33316;52.298;9.056;2023-06-19T08:57:37;28.00;54.60
47590;DHT22;33316;52.298;9.056;2023-06-19T09:00:07;28.00;54.60
47590;DHT22;33316;52.298;9.056;2023-06-19T09:02:40;28.10;54.70
47590;DHT22;33316;52.298;9.056;2023-06-19T09:05:16;28.10;54.50
47590;DHT22;33316;52.298;9.056;2023-06-19T09:07:43;28.10;54.40
47590;DHT22;33316;52.298;9.056;2023-06-19T09:10:15;28.20;54.40
47590;DHT22;33316;52.298;9.056;2023-06-19T09:12:42;28.20;54.60
47590;DHT22;33316;52.298;9.056;2023-06-19T09:15:13;28.20;54.70
47590;DHT22;33316;52.298;9.056;2023-06-19T09:17:40;28.20;54.70
47590;DHT22;33316;52.298;9.056;2023-06-19T09:20:10;28.20;54.50
47590;DHT22;33316;52.298;9.056;2023-06-19T09:22:38;28.20;54.30
47590;DHT22;33316;52.298;9.056;2023-06-19T09:25:07;28.00;54.30
47590;DHT22;33316;52.298;9.056;2023-06-19T09:27:35;28.00;54.60
47590;DHT22;33316;52.298;9.056;2023-06-19T09:30:04;27.90;54.50
47590;DHT22;33316;52.298;9.056;2023-06-19T09:32:31;27.90;54.60
47590;DHT22;33316;52.298;9.056;2023-06-19T09:34:58;27.90;54.70
47590;DHT22;33316;52.298;9.056;2023-06-19T09:37:27;27.80;54.60
47590;DHT22;33316;52.298;9.056;2023-06-19T09:39:56;27.80;54.70
47590;DHT22;33316;52.298;9.056;2023-06-19T09:42:27;27.80;54.90
47590;DHT22;33316;52.298;9.056;2023-06-19T09:44:59;27.70;54.90
47590;DHT22;33316;52.298;9.056;2023-06-19T09:47:31;27.70;54.90
47590;DHT22;33316;52.298;9.056;2023-06-19T09:49:58;27.70;54.90
47590;DHT22;33316;52.298;9.056;2023-06-19T09:52:25;27.70;55.10
47590;DHT22;33316;52.298;9.056;2023-06-19T09:54:56;27.70;54.90
47590;DHT22;33316;52.298;9.056;2023-06-19T09:57:23;27.70;55.00
47590;DHT22;33316;52.298;9.056;2023-06-19T09:59:53;27.60;55.00
47590;DHT22;33316;52.298;9.056;2023-06-19T10:02:22;27.60;55.10
47590;DHT22;33316;52.298;9.056;2023-06-19T10:04:50;27.50;55.00
47590;DHT22;33316;52.298;9.056;2023-06-19T10:07:21;27.50;55.00
47590;DHT22;33316;52.298;9.056;2023-06-19T10:09:57;27.50;55.10
47590;DHT22;33316;52.298;9.056;2023-06-19T10:12:34;27.40;55.00
47590;DHT22;33316;52.298;9.056;2023-06-19T10:15:09;27.40;55.00
47590;DHT22;33316;52.298;9.056;2023-06-19T10:17:36;27.40;55.00
47590;DHT22;33316;52.298;9.056;2023-06-19T10:20:04;27.40;55.10
47590;DHT22;33316;52.298;9.056;2023-06-19T10:22:49;27.40;55.20
47590;DHT22;33316;52.298;9.056;2023-06-19T10:25:21;27.40;55.20
47590;DHT22;33316;52.298;9.056;2023-06-19T10:27:48;27.50;55.20
47590;DHT22;33316;52.298;9.056;2023-06-19T10:30:17;27.50;55.00
47590;DHT22;33316;52.298;9.056;2023-06-19T10:32:45;27.50;55.00
47590;DHT22;33316;52.298;9.056;2023-06-19T10:35:12;27.50;54.70
47590;DHT22;33316;52.298;9.056;2023-06-19T10:37:53;27.50;54.70
47590;DHT22;33316;52.298;9.056;2023-06-19T10:40:22;27.50;54.50
47590;DHT22;33316;52.298;9.056;2023-06-19T10:42:50;27.50;54.30
47590;DHT22;33316;52.298;9.056;2023-06-19T10:45:17;27.50;54.30
47590;DHT22;33316;52.298;9.056;2023-06-19T10:47:44;27.50;54.30
47590;DHT22;33316;52.298;9.056;2023-06-19T10:50:12;27.50;54.30
47590;DHT22;33316;52.298;9.056;2023-06-19T10:52:40;27.50;54.20
47590;DHT22;33316;52.298;9.056;2023-06-19T10:55:09;27.50;54.20
47590;DHT22;33316;52.298;9.056;2023-06-19T10:57:38;27.40;54.10
47590;DHT22;33316;52.298;9.056;2023-06-19T11:00:06;27.40;54.10
47590;DHT22;33316;52.298;9.056;2023-06-19T11:02:43;27.40;53.90
47590;DHT22;33316;52.298;9.056;2023-06-19T11:05:11;27.40;53.90
47590;DHT22;33316;52.298;9.056;2023-06-19T11:07:38;27.40;54.10
47590;DHT22;33316;52.298;9.056;2023-06-19T11:10:06;27.40;54.20
47590;DHT22;33316;52.298;9.056;2023-06-19T11:12:33;27.40;54.30
47590;DHT22;33316;52.298;9.056;2023-06-19T11:15:04;27.30;54.40
47590;DHT22;33316;52.298;9.056;2023-06-19T11:17:32;27.30;54.50
47590;DHT22;33316;52.298;9.056;2023-06-19T11:19:59;27.30;54.60
47590;DHT22;33316;52.298;9.056;2023-06-19T11:22:36;27.30;54.70
47590;DHT22;33316;52.298;9.056;2023-06-19T11:25:04;27.30;54.90
47590;DHT22;33316;52.298;9.056;2023-06-19T11:27:32;27.40;55.20
47590;DHT22;33316;52.298;9.056;2023-06-19T11:30:00;27.40;54.80
47590;DHT22;33316;52.298;9.056;2023-06-19T11:32:35;27.60;54.60
47590;DHT22;33316;52.298;9.056;2023-06-19T11:35:08;27.60;54.30
47590;DHT22;33316;52.298;9.056;2023-06-19T11:37:35;27.70;54.20
47590;DHT22;33316;52.298;9.056;2023-06-19T11:40:02;27.70;53.90
47590;DHT22;33316;52.298;9.056;2023-06-19T11:42:44;27.80;53.90
47590;DHT22;33316;52.298;9.056;2023-06-19T11:45:11;27.80;53.90
47590;DHT22;33316;52.298;9.056;2023-06-19T11:47:39;27.80;53.90
47590;DHT22;33316;52.298;9.056;2023-06-19T11:50:07;27.90;54.00
47590;DHT22;33316;52.298;9.056;2023-06-19T11:52:34;27.90;54.00
47590;DHT22;33316;52.298;9.056;2023-06-19T11:55:01;27.90;53.90
47590;DHT22;33316;52.298;9.056;2023-06-19T11:57:27;27.90;53.80
47590;DHT22;33316;52.298;9.056;2023-06-19T11:59:54;27.90;53.70
47590;DHT22;33316;52.298;9.056;2023-06-19T12:02:21;27.90;53.60
47590;DHT22;33316;52.298;9.056;2023-06-19T12:04:49;27.90;53.60
47590;DHT22;33316;52.298;9.056;2023-06-19T12:07:15;27.80;53.70
47590;DHT22;33316;52.298;9.056;2023-06-19T12:09:42;27.90;53.80
47590;DHT22;33316;52.298;9.056;2023-06-19T12:12:10;27.80;53.80
47590;DHT22;33316;52.298;9.056;2023-06-19T12:14:36;27.90;54.00
47590;DHT22;33316;52.298;9.056;2023-06-19T12:17:05;27.90;54.10
47590;DHT22;33316;52.298;9.056;2023-06-19T12:19:31;27.90;54.00
47590;DHT22;33316;52.298;9.056;2023-06-19T12:21:59;27.90;54.00
47590;DHT22;33316;52.298;9.056;2023-06-19T12:24:26;27.90;54.00
47590;DHT22;33316;52.298;9.056;2023-06-19T12:26:53;27.90;54.00
47590;DHT22;33316;52.298;9.056;2023-06-19T12:29:19;27.90;54.10
47590;DHT22;33316;52.298;9.056;2023-06-19T12:31:47;28.00;54.20
47590;DHT22;33316;52.298;9.056;2023-06-19T12:34:13;28.00;53.90
47590;DHT22;33316;52.298;9.056;2023-06-19T12:36:40;28.00;53.80
47590;DHT22;33316;52.298;9.056;2023-06-19T12:39:09;28.00;53.70
47590;DHT22;33316;52.298;9.056;2023-06-19T12:41:42;28.00;53.80
47590;DHT22;33316;52.298;9.056;2023-06-19T12:44:08;28.00;53.90
47590;DHT22;33316;52.298;9.056;2023-06-19T12:46:35;28.00;53.90
47590;DHT22;33316;52.298;9.056;2023-06-19T12:49:02;28.00;54.00
47590;DHT22;33316;52.298;9.056;2023-06-19T12:51:29;28.00;53.80
47590;DHT22;33316;52.298;9.056;2023-06-19T12:53:56;28.00;53.70
47590;DHT22;33316;52.298;9.056;2023-06-19T12:56:23;28.00;53.90
47590;DHT22;33316;52.298;9.056;2023-06-19T12:58:50;28.00;53.80
47590;DHT22;33316;52.298;9.056;2023-06-19T13:01:17;28.00;53.80
47590;DHT22;33316;52.298;9.056;2023-06-19T13:03:43;28.10;53.90
47590;DHT22;33316;52.298;9.056;2023-06-19T13:06:10;28.10;54.00
47590;DHT22;33316;52.298;9.056;2023-06-19T13:08:37;28.10;53.80
47590;DHT22;33316;52.298;9.056;2023-06-19T13:11:03;28.10;53.60
47590;DHT22;33316;52.298;9.056;2023-06-19T13:13:31;28.10;53.80
47590;DHT22;33316;52.298;9.056;2023-06-19T13:15:58;28.10;53.80
47590;DHT22;33316;52.298;9.056;2023-06-19T13:18:25;28.10;53.90
47590;DHT22;33316;52.298;9.056;2023-06-19T13:20:51;28.20;53.70
47590;DHT22;33316;52.298;9.056;2023-06-19T13:23:18;28.20;53.70
47590;DHT22;33316;52.298;9.056;2023-06-19T13:25:45;28.20;53.70
47590;DHT22;33316;52.298;9.056;2023-06-19T13:28:11;28.20;53.50
47590;DHT22;33316;52.298;9.056;2023-06-19T13:30:40;28.30;53.50
47590;DHT22;33316;52.298;9.056;2023-06-19T13:33:06;28.30;53.50
47590;DHT22;33316;52.298;9.056;2023-06-19T13:35:33;28.30;53.30
47590;DHT22;33316;52.298;9.056;2023-06-19T13:38:00;28.30;52.80
47590;DHT22;33316;52.298;9.056;2023-06-19T13:40:27;28.40;52.80
47590;DHT22;33316;52.298;9.056;2023-06-19T13:42:53;28.30;52.60
47590;DHT22;33316;52.298;9.056;2023-06-19T13:45:20;28.40;52.70
47590;DHT22;33316;52.298;9.056;2023-06-19T13:47:48;28.40;52.70
47590;DHT22;33316;52.298;9.056;2023-06-19T13:50:15;28.40;52.60
47590;DHT22;33316;52.298;9.056;2023-06-19T13:52:44;28.40;52.20
47590;DHT22;33316;52.298;9.056;2023-06-19T13:55:11;28.40;52.80
47590;DHT22;33316;52.298;9.056;2023-06-19T13:57:38;28.40;52.00
47590;DHT22;33316;52.298;9.056;2023-06-19T14:00:06;28.40;52.10
47590;DHT22;33316;52.298;9.056;2023-06-19T14:02:34;28.50;52.50
47590;DHT22;33316;52.298;9.056;2023-06-19T14:05:02;28.50;52.20
47590;DHT22;33316;52.298;9.056;2023-06-19T14:07:29;28.60;52.30
47590;DHT22;33316;52.298;9.056;2023-06-19T14:09:56;28.60;52.20
47590;DHT22;33316;52.298;9.056;2023-06-19T14:12:22;28.60;52.10
47590;DHT22;33316;52.298;9.056;2023-06-19T14:14:49;28.60;51.70
47590;DHT22;33316;52.298;9.056;2023-06-19T14:17:17;28.60;51.90
47590;DHT22;33316;52.298;9.056;2023-06-19T14:19:44;28.60;51.90
47590;DHT22;33316;52.298;9.056;2023-06-19T14:22:12;28.60;51.80
47590;DHT22;33316;52.298;9.056;2023-06-19T14:24:38;28.60;51.60
47590;DHT22;33316;52.298;9.056;2023-06-19T14:27:05;28.60;51.70
47590;DHT22;33316;52.298;9.056;2023-06-19T14:29:32;28.60;51.70
47590;DHT22;33316;52.298;9.056;2023-06-19T14:31:59;28.70;51.90
47590;DHT22;33316;52.298;9.056;2023-06-19T14:34:25;28.70;51.60
47590;DHT22;33316;52.298;9.056;2023-06-19T14:36:52;28.80;51.20
47590;DHT22;33316;52.298;9.056;2023-06-19T14:39:20;28.80;51.20
47590;DHT22;33316;52.298;9.056;2023-06-19T14:41:47;28.90;51.10
47590;DHT22;33316;52.298;9.056;2023-06-19T14:44:13;28.90;51.20
47590;DHT22;33316;52.298;9.056;2023-06-19T14:46:40;28.90;51.40
47590;DHT22;33316;52.298;9.056;2023-06-19T14:49:09;29.00;51.30
47590;DHT22;33316;52.298;9.056;2023-06-19T14:51:36;29.00;51.30
47590;DHT22;33316;52.298;9.056;2023-06-19T14:54:03;29.00;51.20
47590;DHT22;33316;52.298;9.056;2023-06-19T14:56:31;29.00;51.00
47590;DHT22;33316;52.298;9.056;2023-06-19T14:58:57;29.00;50.90
47590;DHT22;33316;52.298;9.056;2023-06-19T15:01:25;29.00;50.90
47590;DHT22;33316;52.298;9.056;2023-06-19T15:03:52;29.00;51.20
47590;DHT22;33316;52.298;9.056;2023-06-19T15:06:19;29.00;50.90
47590;DHT22;33316;52.298;9.056;2023-06-19T15:08:45;29.00;51.10
47590;DHT22;33316;52.298;9.056;2023-06-19T15:11:12;29.00;51.20
47590;DHT22;33316;52.298;9.056;2023-06-19T15:13:40;29.00;51.10
47590;DHT22;33316;52.298;9.056;2023-06-19T15:16:07;29.10;51.10
47590;DHT22;33316;52.298;9.056;2023-06-19T15:18:37;29.10;51.00
47590;DHT22;33316;52.298;9.056;2023-06-19T15:21:03;29.10;50.80
47590;DHT22;33316;52.298;9.056;2023-06-19T15:23:31;29.10;50.60
47590;DHT22;33316;52.298;9.056;2023-06-19T15:25:57;29.10;50.70
47590;DHT22;33316;52.298;9.056;2023-06-19T15:28:24;29.10;50.60
47590;DHT22;33316;52.298;9.056;2023-06-19T15:30:52;29.10;50.60
47590;DHT22;33316;52.298;9.056;2023-06-19T15:33:19;29.10;50.70